createdAt,value
2019-04-30T00:01:58.979Z,11.14
2019-04-30T00:04:30.029Z,11.13
2019-04-30T00:07:00.075Z,11.14
2019-04-30T00:09:30.418Z,11.13
2019-04-30T00:12:01.265Z,11.15
2019-04-30T00:14:36.844Z,11.12
2019-04-30T00:17:02.138Z,11.13
2019-04-30T00:19:32.046Z,11.10
2019-04-30T00:22:01.520Z,11.10
2019-04-30T00:24:30.987Z,11.10
2019-04-30T00:27:00.390Z,11.08
2019-04-30T00:29:31.041Z,11.03
2019-04-30T00:32:04.474Z,11.02
2019-04-30T00:34:35.998Z,11.00
2019-04-30T00:37:07.370Z,11.00
2019-04-30T00:39:35.552Z,11.03
2019-04-30T00:42:05.092Z,11.01
2019-04-30T00:44:35.662Z,11.02
2019-04-30T00:47:08.311Z,11.01
2019-04-30T00:49:37.903Z,11.01
2019-04-30T00:52:07.238Z,11.03
2019-04-30T00:54:36.616Z,11.03
2019-04-30T00:57:07.673Z,11.02
2019-04-30T00:59:39.690Z,11.04
2019-04-30T01:02:20.233Z,11.05
2019-04-30T01:04:48.826Z,11.08
2019-04-30T01:07:18.599Z,11.04
2019-04-30T01:09:49.875Z,11.05
2019-04-30T01:12:25.510Z,11.08
2019-04-30T01:14:50.611Z,11.08
2019-04-30T01:17:20.034Z,11.07
2019-04-30T01:19:51.137Z,11.09
2019-04-30T01:22:27.725Z,11.13
2019-04-30T01:24:52.054Z,11.19
2019-04-30T01:27:21.481Z,11.22
2019-04-30T01:29:50.933Z,11.24
2019-04-30T01:32:21.162Z,11.30
2019-04-30T01:34:53.851Z,11.32
2019-04-30T01:37:28.672Z,11.34
2019-04-30T01:39:52.886Z,11.37
2019-04-30T01:42:22.194Z,11.39
2019-04-30T01:44:53.868Z,11.38
2019-04-30T01:47:27.710Z,11.38
2019-04-30T01:49:55.793Z,11.37
2019-04-30T01:52:29.181Z,11.33
2019-04-30T01:54:58.660Z,11.31
2019-04-30T01:57:29.867Z,11.31
2019-04-30T02:00:03.467Z,11.33
2019-04-30T02:02:34.513Z,11.36
2019-04-30T02:05:05.381Z,11.37
2019-04-30T02:07:34.748Z,11.36
2019-04-30T02:10:05.447Z,11.37
2019-04-30T02:12:34.812Z,11.39
2019-04-30T02:15:04.326Z,11.41
2019-04-30T02:17:33.723Z,11.43
2019-04-30T02:20:03.290Z,11.46
2019-04-30T02:22:32.639Z,11.48
2019-04-30T02:25:01.974Z,11.47
2019-04-30T02:27:31.344Z,11.50
2019-04-30T02:30:02.628Z,11.49
2019-04-30T02:32:31.826Z,11.44
2019-04-30T02:35:09.617Z,11.43
2019-04-30T02:37:59.574Z,11.37
2019-04-30T02:40:30.216Z,11.37
2019-04-30T02:43:01.773Z,11.33
2019-04-30T02:45:33.408Z,11.35
2019-04-30T02:48:04.274Z,11.35
2019-04-30T02:50:36.250Z,11.34
2019-04-30T02:53:19.911Z,11.34
2019-04-30T02:55:49.926Z,11.34
2019-04-30T02:58:21.077Z,11.31
2019-04-30T03:00:50.550Z,11.33
2019-04-30T03:03:20.384Z,11.33
2019-04-30T03:05:50.216Z,11.33
2019-04-30T03:08:19.943Z,11.33
2019-04-30T03:10:50.001Z,11.33
2019-04-30T03:13:20.603Z,11.33
2019-04-30T03:15:50.033Z,11.35
2019-04-30T03:18:23.777Z,11.37
2019-04-30T03:20:54.816Z,11.37
2019-04-30T03:23:24.112Z,11.36
2019-04-30T03:25:53.481Z,11.35
2019-04-30T03:28:22.825Z,11.34
2019-04-30T03:30:57.993Z,11.36
2019-04-30T03:33:23.442Z,11.32
2019-04-30T03:35:54.592Z,11.30
2019-04-30T03:38:23.878Z,11.30
2019-04-30T03:40:53.242Z,11.32
2019-04-30T03:43:22.592Z,11.31
2019-04-30T03:45:51.960Z,11.37
2019-04-30T03:48:21.207Z,11.41
2019-04-30T03:50:56.708Z,11.43
2019-04-30T03:53:21.740Z,11.41
2019-04-30T03:55:51.037Z,11.37
2019-04-30T03:58:21.466Z,11.38
2019-04-30T04:01:10.154Z,11.35
2019-04-30T04:04:00.195Z,11.33
2019-04-30T04:06:30.358Z,11.25
2019-04-30T04:09:01.302Z,11.25
2019-04-30T04:11:32.280Z,11.22
2019-04-30T04:14:01.674Z,11.25
2019-04-30T04:16:32.260Z,11.29
2019-04-30T04:19:02.890Z,11.30
2019-04-30T04:21:32.464Z,11.32
2019-04-30T04:24:01.830Z,11.36
2019-04-30T04:26:31.256Z,11.39
2019-04-30T04:29:00.608Z,11.40
2019-04-30T04:31:30.044Z,11.41
2019-04-30T04:34:00.066Z,11.41
2019-04-30T04:36:30.399Z,11.37
2019-04-30T04:39:00.222Z,11.38
2019-04-30T04:41:29.881Z,11.41
2019-04-30T04:44:00.083Z,11.39
2019-04-30T04:46:30.649Z,11.44
2019-04-30T04:49:00.446Z,11.48
2019-04-30T04:51:38.151Z,11.52
2019-04-30T04:54:03.324Z,11.55
2019-04-30T04:56:31.755Z,11.54
2019-04-30T04:59:01.130Z,11.55
2019-04-30T05:01:30.571Z,11.57
2019-04-30T05:03:59.889Z,11.57
2019-04-30T05:06:29.985Z,11.61
2019-04-30T05:09:01.637Z,11.66
2019-04-30T05:11:31.666Z,11.72
2019-04-30T05:14:01.358Z,11.70
2019-04-30T05:16:30.840Z,11.75
2019-04-30T05:19:01.202Z,11.83
2019-04-30T05:21:41.980Z,11.87
2019-04-30T05:24:02.329Z,11.90
2019-04-30T05:26:31.692Z,11.92
2019-04-30T05:29:00.973Z,11.89
2019-04-30T05:31:30.380Z,11.88
2019-04-30T05:33:59.600Z,11.96
2019-04-30T05:36:29.313Z,12.01
2019-04-30T05:38:58.882Z,12.02
2019-04-30T05:41:28.970Z,12.10
2019-04-30T05:43:59.172Z,12.18
2019-04-30T05:46:29.825Z,12.22
2019-04-30T05:48:59.562Z,12.26
2019-04-30T05:51:29.096Z,12.26
2019-04-30T05:53:59.248Z,12.22
2019-04-30T05:56:30.461Z,12.22
2019-04-30T05:59:01.024Z,12.21
2019-04-30T06:01:30.533Z,12.34
2019-04-30T06:03:59.900Z,12.46
2019-04-30T06:06:29.267Z,12.38
2019-04-30T06:09:06.582Z,12.36
2019-04-30T06:11:51.776Z,12.31
2019-04-30T06:14:25.397Z,12.35
2019-04-30T06:17:05.037Z,12.31
2019-04-30T06:19:34.640Z,12.45
2019-04-30T06:22:08.070Z,12.46
2019-04-30T06:24:36.001Z,12.53
2019-04-30T06:27:05.615Z,12.57
2019-04-30T06:29:36.761Z,12.69
2019-04-30T06:32:06.240Z,12.74
2019-04-30T06:34:36.061Z,12.83
2019-04-30T06:37:05.609Z,12.96
2019-04-30T06:39:38.578Z,12.96
2019-04-30T06:42:12.503Z,12.94
2019-04-30T06:44:41.899Z,12.96
2019-04-30T06:47:10.827Z,13.00
2019-04-30T06:49:40.312Z,12.97
2019-04-30T06:52:20.220Z,13.05
2019-04-30T06:54:40.828Z,13.20
2019-04-30T06:57:12.092Z,13.38
2019-04-30T06:59:42.729Z,13.46
2019-04-30T07:02:12.112Z,13.42
2019-04-30T07:04:41.524Z,13.38
2019-04-30T07:07:14.277Z,13.33
2019-04-30T07:09:53.157Z,13.17
2019-04-30T07:12:29.885Z,13.11
2019-04-30T07:14:59.181Z,13.08
2019-04-30T07:17:29.228Z,13.09
2019-04-30T07:19:59.719Z,13.12
2019-04-30T07:22:40.184Z,13.16
2019-04-30T07:25:00.369Z,13.21
2019-04-30T07:27:30.160Z,13.32
2019-04-30T07:30:00.722Z,13.53
2019-04-30T07:32:30.246Z,13.80
2019-04-30T07:34:59.703Z,14.31
2019-04-30T07:37:29.445Z,14.79
2019-04-30T07:39:59.044Z,14.97
2019-04-30T07:42:29.416Z,15.12
2019-04-30T07:45:00.763Z,15.31
2019-04-30T07:47:30.018Z,15.01
2019-04-30T07:50:00.640Z,15.23
2019-04-30T07:52:33.958Z,15.38
2019-04-30T07:55:01.453Z,15.35
2019-04-30T07:57:32.520Z,15.21
2019-04-30T08:00:02.143Z,15.41
2019-04-30T08:02:37.057Z,15.41
2019-04-30T08:05:10.316Z,16.00
2019-04-30T08:07:39.205Z,16.46
2019-04-30T08:10:09.917Z,16.87
2019-04-30T08:12:42.798Z,16.76
2019-04-30T08:15:11.941Z,16.80
2019-04-30T08:17:41.213Z,17.01
2019-04-30T08:20:10.938Z,17.34
2019-04-30T08:22:41.120Z,17.70
2019-04-30T08:25:10.644Z,18.15
2019-04-30T08:27:40.034Z,18.23
2019-04-30T08:30:21.416Z,18.73
2019-04-30T08:32:41.404Z,19.54
2019-04-30T08:35:10.786Z,20.33
2019-04-30T08:37:40.246Z,19.74
2019-04-30T08:40:10.147Z,18.70
2019-04-30T08:42:40.371Z,18.62
2019-04-30T08:45:10.399Z,18.50
2019-04-30T08:47:39.840Z,18.19
2019-04-30T08:50:10.660Z,18.05
2019-04-30T08:52:40.323Z,18.38
2019-04-30T08:55:16.277Z,18.65
2019-04-30T08:57:41.210Z,18.98
2019-04-30T09:00:11.805Z,19.28
2019-04-30T09:02:42.527Z,19.33
2019-04-30T09:05:15.032Z,19.34
2019-04-30T09:07:44.370Z,19.52
2019-04-30T09:10:15.298Z,19.91
2019-04-30T09:12:44.654Z,20.12
2019-04-30T09:15:14.178Z,20.90
2019-04-30T09:17:58.117Z,20.54
2019-04-30T09:20:16.359Z,21.08
2019-04-30T09:22:46.606Z,20.60
2019-04-30T09:25:19.416Z,21.05
2019-04-30T09:27:48.950Z,22.09
2019-04-30T09:30:19.025Z,22.07
2019-04-30T09:32:49.940Z,22.34
2019-04-30T09:35:19.717Z,21.55
2019-04-30T09:37:49.634Z,21.09
2019-04-30T09:40:21.183Z,20.62
2019-04-30T09:42:50.847Z,19.90
2019-04-30T09:45:20.318Z,19.46
2019-04-30T09:47:50.580Z,19.78
2019-04-30T09:50:20.241Z,19.83
2019-04-30T09:52:50.135Z,19.89
2019-04-30T09:55:20.026Z,19.62
2019-04-30T09:57:49.320Z,19.64
2019-04-30T10:00:19.493Z,19.05
2019-04-30T10:02:49.055Z,18.15
2019-04-30T10:05:19.861Z,16.91
2019-04-30T10:07:49.911Z,16.12
2019-04-30T10:10:21.525Z,15.49
2019-04-30T10:12:50.840Z,15.36
2019-04-30T10:15:30.848Z,14.98
2019-04-30T10:18:00.337Z,14.55
2019-04-30T10:20:41.241Z,14.13
2019-04-30T10:23:10.611Z,13.31
2019-04-30T10:25:40.128Z,13.08
2019-04-30T10:28:10.095Z,12.80
2019-04-30T10:30:39.985Z,12.47
2019-04-30T10:33:10.117Z,12.19
2019-04-30T10:35:39.587Z,12.11
2019-04-30T10:38:09.893Z,11.88
2019-04-30T10:40:39.738Z,11.88
2019-04-30T10:43:09.371Z,11.73
2019-04-30T10:45:39.094Z,11.87
2019-04-30T10:48:08.606Z,11.82
2019-04-30T10:50:40.767Z,11.84
2019-04-30T10:53:09.527Z,12.09
2019-04-30T10:55:40.112Z,11.91
2019-04-30T10:58:09.515Z,12.02
2019-04-30T11:00:41.203Z,12.10
2019-04-30T11:03:19.598Z,12.25
2019-04-30T11:05:41.775Z,12.44
2019-04-30T11:08:11.316Z,12.72
2019-04-30T11:10:41.112Z,13.25
2019-04-30T11:13:10.686Z,13.47
2019-04-30T11:15:40.086Z,13.50
2019-04-30T11:18:09.813Z,13.16
2019-04-30T11:20:39.808Z,12.55
2019-04-30T11:23:14.478Z,12.81
2019-04-30T11:25:41.837Z,13.33
2019-04-30T11:28:12.462Z,13.51
2019-04-30T11:30:42.609Z,13.49
2019-04-30T11:33:13.159Z,13.21
2019-04-30T11:35:43.669Z,13.19
2019-04-30T11:38:13.038Z,13.37
2019-04-30T11:40:42.716Z,13.49
2019-04-30T11:43:12.091Z,13.90
2019-04-30T11:45:52.858Z,14.00
2019-04-30T11:48:22.578Z,14.32
2019-04-30T11:50:52.043Z,14.73
2019-04-30T11:53:27.575Z,15.04
2019-04-30T11:55:54.053Z,15.44
2019-04-30T11:58:23.485Z,15.20
2019-04-30T12:00:53.163Z,15.35
2019-04-30T12:03:23.970Z,15.85
2019-04-30T12:05:53.425Z,15.21
2019-04-30T12:08:26.512Z,15.03
2019-04-30T12:11:00.956Z,14.59
2019-04-30T12:13:31.271Z,14.71
2019-04-30T12:16:00.898Z,14.77
2019-04-30T12:18:30.317Z,14.77
2019-04-30T12:20:59.696Z,15.40
2019-04-30T12:23:29.062Z,16.03
2019-04-30T12:26:00.948Z,15.14
2019-04-30T12:28:29.727Z,15.25
2019-04-30T12:30:59.171Z,15.21
2019-04-30T12:33:28.625Z,15.22
2019-04-30T12:35:59.571Z,15.50
2019-04-30T12:38:29.841Z,15.61
2019-04-30T12:40:59.477Z,15.65
2019-04-30T12:43:28.860Z,15.54
2019-04-30T12:46:03.503Z,15.15
2019-04-30T12:48:34.683Z,14.92
2019-04-30T12:51:14.995Z,14.64
2019-04-30T12:53:48.765Z,14.45
2019-04-30T12:56:35.871Z,14.31
2019-04-30T12:59:05.458Z,14.08
2019-04-30T13:01:34.890Z,14.00
2019-04-30T13:04:04.380Z,13.78
2019-04-30T13:06:34.395Z,13.71
2019-04-30T13:09:06.534Z,13.58
2019-04-30T13:11:40.087Z,13.66
2019-04-30T13:14:10.339Z,13.58
2019-04-30T13:16:39.943Z,13.32
2019-04-30T13:19:12.947Z,13.38
2019-04-30T13:21:42.380Z,13.39
2019-04-30T13:24:11.798Z,13.27
2019-04-30T13:26:41.362Z,13.30
2019-04-30T13:29:12.401Z,13.40
2019-04-30T13:31:41.766Z,13.36
2019-04-30T13:34:22.043Z,13.25
2019-04-30T13:36:51.566Z,13.29
2019-04-30T13:39:27.014Z,13.23
2019-04-30T13:42:00.625Z,13.34
2019-04-30T13:44:31.639Z,13.51
2019-04-30T13:47:01.029Z,13.44
2019-04-30T13:49:30.503Z,13.32
2019-04-30T13:51:59.867Z,13.63
2019-04-30T13:54:29.292Z,13.60
2019-04-30T13:56:59.161Z,13.85
2019-04-30T13:59:28.576Z,13.77
2019-04-30T14:01:58.813Z,13.81
2019-04-30T14:04:39.016Z,14.15
2019-04-30T14:07:15.769Z,14.23
2019-04-30T14:09:45.101Z,13.86
2019-04-30T14:12:14.696Z,13.64
2019-04-30T14:14:43.974Z,13.73
2019-04-30T14:17:13.470Z,14.06
2019-04-30T14:19:42.875Z,14.12
2019-04-30T14:22:12.589Z,14.11
2019-04-30T14:24:42.025Z,13.93
2019-04-30T14:27:11.619Z,13.69
2019-04-30T14:29:40.996Z,13.70
2019-04-30T14:32:10.465Z,13.46
2019-04-30T14:34:39.942Z,13.36
2019-04-30T14:37:09.371Z,13.35
2019-04-30T14:39:39.029Z,13.14
2019-04-30T14:42:10.598Z,13.06
2019-04-30T14:44:40.611Z,12.96
2019-04-30T14:47:15.653Z,12.93
2019-04-30T14:50:04.398Z,12.87
2019-04-30T14:52:34.171Z,12.85
2019-04-30T14:55:14.366Z,12.93
2019-04-30T14:57:53.386Z,12.92
2019-04-30T15:00:31.981Z,12.84
2019-04-30T15:03:11.969Z,12.76
2019-04-30T15:05:48.551Z,12.76
2019-04-30T15:08:13.910Z,12.74
2019-04-30T15:10:44.745Z,12.66
2019-04-30T15:13:14.112Z,12.86
2019-04-30T15:15:43.445Z,12.90
2019-04-30T15:18:12.994Z,12.94
2019-04-30T15:20:42.450Z,12.98
2019-04-30T15:23:21.762Z,13.32
2019-04-30T15:25:50.594Z,13.73
2019-04-30T15:28:20.695Z,14.14
2019-04-30T15:30:50.166Z,14.13
2019-04-30T15:33:21.167Z,14.38
2019-04-30T15:35:50.702Z,14.18
2019-04-30T15:38:21.652Z,13.91
2019-04-30T15:40:52.680Z,13.94
2019-04-30T15:43:22.242Z,13.59
2019-04-30T15:45:51.722Z,13.47
2019-04-30T15:48:21.217Z,13.47
2019-04-30T15:50:50.650Z,13.12
2019-04-30T15:53:20.045Z,13.15
2019-04-30T15:55:49.410Z,13.07
2019-04-30T15:58:26.496Z,13.00
2019-04-30T16:00:55.935Z,12.98
2019-04-30T16:03:33.184Z,12.86
2019-04-30T16:06:03.517Z,12.80
2019-04-30T16:08:34.703Z,12.87
2019-04-30T16:11:20.637Z,12.99
2019-04-30T16:13:51.634Z,13.14
2019-04-30T16:16:21.298Z,13.15
2019-04-30T16:18:50.745Z,12.97
2019-04-30T16:21:20.142Z,12.93
2019-04-30T16:23:49.443Z,12.97
2019-04-30T16:26:18.943Z,13.01
2019-04-30T16:28:49.527Z,12.83
2019-04-30T16:31:20.523Z,12.74
2019-04-30T16:33:50.018Z,12.74
2019-04-30T16:36:22.558Z,12.51
2019-04-30T16:38:51.916Z,12.37
2019-04-30T16:41:31.194Z,12.27
2019-04-30T16:43:53.857Z,12.14
2019-04-30T16:46:23.320Z,12.17
2019-04-30T16:48:52.705Z,12.11
2019-04-30T16:51:22.052Z,12.08
2019-04-30T16:53:51.333Z,12.06
2019-04-30T16:56:20.780Z,11.99
2019-04-30T16:59:03.564Z,11.92
2019-04-30T17:01:34.608Z,11.87
2019-04-30T17:04:16.104Z,11.84
2019-04-30T17:07:03.799Z,11.75
2019-04-30T17:09:34.870Z,11.67
2019-04-30T17:12:08.800Z,11.66
2019-04-30T17:14:39.732Z,11.63
2019-04-30T17:17:09.059Z,11.50
2019-04-30T17:19:40.009Z,11.51
2019-04-30T17:22:09.381Z,11.56
2019-04-30T17:24:39.449Z,11.50
2019-04-30T17:27:18.667Z,11.35
2019-04-30T17:29:40.010Z,11.31
2019-04-30T17:32:10.611Z,11.25
2019-04-30T17:34:40.092Z,11.20
2019-04-30T17:37:09.410Z,11.16
2019-04-30T17:39:41.089Z,11.12
2019-04-30T17:42:10.337Z,11.09
2019-04-30T17:44:39.817Z,11.02
2019-04-30T17:47:09.182Z,10.94
2019-04-30T17:49:38.415Z,10.89
2019-04-30T17:52:08.858Z,10.84
2019-04-30T17:54:38.362Z,10.83
2019-04-30T17:57:10.460Z,10.84
2019-04-30T17:59:38.851Z,10.81
2019-04-30T18:02:09.709Z,10.78
2019-04-30T18:04:39.266Z,10.72
2019-04-30T18:07:09.916Z,10.70
2019-04-30T18:09:39.562Z,10.66
2019-04-30T18:12:09.512Z,10.65
2019-04-30T18:14:39.613Z,10.58
2019-04-30T18:17:09.389Z,10.56
2019-04-30T18:19:43.240Z,10.57
2019-04-30T18:22:19.487Z,10.53
2019-04-30T18:24:50.604Z,10.52
2019-04-30T18:27:24.035Z,10.55
2019-04-30T18:29:53.411Z,10.49
2019-04-30T18:32:25.878Z,10.52
2019-04-30T18:34:55.260Z,10.53
2019-04-30T18:37:24.570Z,10.52
2019-04-30T18:39:53.907Z,10.50
2019-04-30T18:42:23.143Z,10.49
2019-04-30T18:44:52.459Z,10.44
2019-04-30T18:47:22.044Z,10.42
2019-04-30T18:49:53.761Z,10.42
2019-04-30T18:52:23.131Z,10.39
2019-04-30T18:54:52.539Z,10.34
2019-04-30T18:57:21.937Z,10.35
2019-04-30T18:59:51.411Z,10.33
2019-04-30T19:02:20.899Z,10.34
2019-04-30T19:04:50.344Z,10.32
2019-04-30T19:07:21.352Z,10.37
2019-04-30T19:09:55.358Z,10.35
2019-04-30T19:12:29.294Z,10.36
2019-04-30T19:15:03.413Z,10.29
2019-04-30T19:17:39.323Z,10.27
2019-04-30T19:20:10.770Z,10.29
2019-04-30T19:22:40.498Z,10.30
2019-04-30T19:25:11.517Z,10.28
2019-04-30T19:27:41.030Z,10.28
2019-04-30T19:30:11.712Z,10.28
2019-04-30T19:32:41.055Z,10.24
2019-04-30T19:35:14.181Z,10.27
2019-04-30T19:37:43.613Z,10.26
2019-04-30T19:40:13.443Z,10.25
2019-04-30T19:42:42.725Z,10.23
2019-04-30T19:45:13.570Z,10.21
2019-04-30T19:47:42.985Z,10.17
2019-04-30T19:50:14.098Z,10.14
2019-04-30T19:52:43.749Z,10.12
2019-04-30T19:55:13.252Z,10.05
2019-04-30T19:57:42.565Z,10.06
2019-04-30T20:00:12.663Z,10.05
2019-04-30T20:02:42.085Z,10.03
2019-04-30T20:05:13.530Z,9.96
2019-04-30T20:07:42.889Z,9.98
2019-04-30T20:10:12.511Z,9.96
2019-04-30T20:12:41.904Z,9.96
2019-04-30T20:15:19.274Z,9.98
2019-04-30T20:17:42.836Z,9.95
2019-04-30T20:20:13.102Z,9.93
2019-04-30T20:22:42.560Z,9.94
2019-04-30T20:25:11.962Z,9.92
2019-04-30T20:27:41.382Z,9.94
2019-04-30T20:30:11.450Z,9.93
2019-04-30T20:32:40.929Z,9.91
2019-04-30T20:35:10.368Z,9.92
2019-04-30T20:37:59.453Z,9.94
2019-04-30T20:40:42.677Z,9.97
2019-04-30T20:43:01.604Z,9.93
2019-04-30T20:45:31.027Z,9.94
2019-04-30T20:48:00.501Z,9.94
2019-04-30T20:50:29.829Z,9.94
2019-04-30T20:52:59.282Z,9.94
2019-04-30T20:55:28.753Z,9.95
2019-04-30T20:57:59.495Z,9.94
2019-04-30T21:00:29.030Z,9.93
2019-04-30T21:02:59.833Z,9.96
2019-04-30T21:05:29.476Z,9.94
2019-04-30T21:07:59.064Z,9.95
2019-04-30T21:10:29.671Z,9.96
2019-04-30T21:12:59.090Z,9.95
2019-04-30T21:15:29.729Z,9.96
2019-04-30T21:17:59.440Z,9.96
2019-04-30T21:20:29.089Z,9.97
2019-04-30T21:22:59.635Z,9.94
2019-04-30T21:25:29.375Z,9.91
2019-04-30T21:27:59.946Z,9.91
2019-04-30T21:30:29.706Z,9.92
2019-04-30T21:33:18.963Z,9.90
2019-04-30T21:35:50.793Z,9.92
2019-04-30T21:38:20.424Z,9.92
2019-04-30T21:40:49.824Z,9.93
2019-04-30T21:43:19.129Z,9.95
2019-04-30T21:45:49.382Z,9.95
2019-04-30T21:48:19.263Z,9.95
2019-04-30T21:50:49.769Z,10.01
2019-04-30T21:53:19.653Z,9.99
2019-04-30T21:55:50.829Z,9.98
2019-04-30T21:58:20.607Z,9.98
2019-04-30T22:00:54.590Z,9.99
2019-04-30T22:03:24.079Z,9.99
2019-04-30T22:05:53.375Z,9.99
2019-04-30T22:08:22.756Z,10.00
2019-04-30T22:10:52.345Z,10.00
2019-04-30T22:13:21.777Z,10.02
2019-04-30T22:15:51.195Z,10.02
2019-04-30T22:18:20.651Z,10.04
2019-04-30T22:20:49.957Z,10.06
2019-04-30T22:23:19.288Z,10.06
2019-04-30T22:25:49.130Z,10.08
2019-04-30T22:28:18.422Z,10.11
2019-04-30T22:30:48.333Z,10.10
2019-04-30T22:33:19.406Z,10.12
2019-04-30T22:35:53.237Z,10.12
2019-04-30T22:38:24.274Z,10.16
2019-04-30T22:40:53.647Z,10.16
2019-04-30T22:43:23.078Z,10.18
2019-04-30T22:46:11.974Z,10.24
2019-04-30T22:48:41.357Z,10.22
2019-04-30T22:51:10.727Z,10.27
2019-04-30T22:53:40.152Z,10.28
2019-04-30T22:56:09.614Z,10.27
2019-04-30T22:58:39.262Z,10.27
2019-04-30T23:01:26.760Z,10.31
2019-04-30T23:04:12.584Z,10.32
2019-04-30T23:06:41.983Z,10.33
2019-04-30T23:09:13.488Z,10.39
2019-04-30T23:11:42.880Z,10.43
2019-04-30T23:14:12.270Z,10.49
2019-04-30T23:16:41.708Z,10.48
2019-04-30T23:19:11.022Z,10.52
2019-04-30T23:21:40.712Z,10.50
2019-04-30T23:24:10.219Z,10.52
2019-04-30T23:26:39.745Z,10.52
2019-04-30T23:29:09.052Z,10.53
2019-04-30T23:31:40.735Z,10.52
2019-04-30T23:34:17.812Z,10.54
2019-04-30T23:36:41.138Z,10.52
2019-04-30T23:39:11.417Z,10.51
2019-04-30T23:41:40.810Z,10.51
2019-04-30T23:44:10.299Z,10.49
2019-04-30T23:46:39.686Z,10.48
2019-04-30T23:49:09.121Z,10.46
2019-04-30T23:51:38.478Z,10.46
2019-04-30T23:54:07.782Z,10.44
2019-04-30T23:56:37.252Z,10.42
2019-04-30T23:59:06.618Z,10.44
